sensor_id;sensor_type;location;lat;lon;timestamp;P1;durP1;ratioP1;P2;durP2;ratioP2
47167;SDS011;32931;47.778;17.806;2022-09-29T00:00:32;3.08;;;1.60;;
47167;SDS011;32931;47.778;17.806;2022-09-29T00:02:59;9.07;;;1.95;;
47167;SDS011;32931;47.778;17.806;2022-09-29T00:05:26;4.15;;;1.60;;
47167;SDS011;32931;47.778;17.806;2022-09-29T00:07:52;3.38;;;1.52;;
47167;SDS011;32931;47.778;17.806;2022-09-29T00:10:19;4.95;;;1.50;;
47167;SDS011;32931;47.778;17.806;2022-09-29T00:12:45;3.20;;;1.60;;
47167;SDS011;32931;47.778;17.806;2022-09-29T00:15:12;3.35;;;1.83;;
47167;SDS011;32931;47.778;17.806;2022-09-29T00:17:38;3.70;;;1.73;;
47167;SDS011;32931;47.778;17.806;2022-09-29T00:20:05;2.83;;;1.40;;
47167;SDS011;32931;47.778;17.806;2022-09-29T00:22:31;4.30;;;1.83;;
47167;SDS011;32931;47.778;17.806;2022-09-29T00:24:57;4.20;;;1.88;;
47167;SDS011;32931;47.778;17.806;2022-09-29T00:27:24;4.05;;;1.58;;
47167;SDS011;32931;47.778;17.806;2022-09-29T00:29:50;3.72;;;1.60;;
47167;SDS011;32931;47.778;17.806;2022-09-29T00:32:16;4.80;;;1.58;;
47167;SDS011;32931;47.778;17.806;2022-09-29T00:34:43;1.88;;;1.50;;
47167;SDS011;32931;47.778;17.806;2022-09-29T00:37:09;5.88;;;1.67;;
47167;SDS011;32931;47.778;17.806;2022-09-29T00:39:35;1.70;;;1.27;;
47167;SDS011;32931;47.778;17.806;2022-09-29T00:42:03;4.00;;;1.60;;
47167;SDS011;32931;47.778;17.806;2022-09-29T00:47:46;2.05;;;1.33;;
47167;SDS011;32931;47.778;17.806;2022-09-29T00:53:07;2.30;;;1.52;;
47167;SDS011;32931;47.778;17.806;2022-09-29T00:55:58;4.85;;;1.55;;
47167;SDS011;32931;47.778;17.806;2022-09-29T01:01:00;3.20;;;1.38;;
47167;SDS011;32931;47.778;17.806;2022-09-29T01:03:28;2.97;;;1.30;;
47167;SDS011;32931;47.778;17.806;2022-09-29T01:06:00;4.00;;;1.63;;
47167;SDS011;32931;47.778;17.806;2022-09-29T01:11:17;5.10;;;1.60;;
47167;SDS011;32931;47.778;17.806;2022-09-29T01:13:46;2.92;;;1.40;;
47167;SDS011;32931;47.778;17.806;2022-09-29T01:16:13;2.65;;;1.80;;
47167;SDS011;32931;47.778;17.806;2022-09-29T01:18:39;2.42;;;1.83;;
47167;SDS011;32931;47.778;17.806;2022-09-29T01:24:08;3.20;;;1.40;;
47167;SDS011;32931;47.778;17.806;2022-09-29T01:27:18;4.13;;;0.90;;
47167;SDS011;32931;47.778;17.806;2022-09-29T01:40:37;1.92;;;0.80;;
47167;SDS011;32931;47.778;17.806;2022-09-29T01:43:20;4.97;;;0.90;;
47167;SDS011;32931;47.778;17.806;2022-09-29T01:46:39;3.05;;;0.70;;
47167;SDS011;32931;47.778;17.806;2022-09-29T01:48:51;3.25;;;0.80;;
47167;SDS011;32931;47.778;17.806;2022-09-29T01:51:22;1.95;;;0.90;;
47167;SDS011;32931;47.778;17.806;2022-09-29T01:53:55;1.23;;;0.80;;
47167;SDS011;32931;47.778;17.806;2022-09-29T01:56:26;4.00;;;0.95;;
47167;SDS011;32931;47.778;17.806;2022-09-29T01:58:58;1.65;;;0.70;;
47167;SDS011;32931;47.778;17.806;2022-09-29T02:01:30;4.15;;;1.23;;
47167;SDS011;32931;47.778;17.806;2022-09-29T02:04:01;1.60;;;0.90;;
47167;SDS011;32931;47.778;17.806;2022-09-29T02:06:36;2.65;;;1.10;;
47167;SDS011;32931;47.778;17.806;2022-09-29T02:09:11;2.03;;;1.10;;
47167;SDS011;32931;47.778;17.806;2022-09-29T02:11:43;1.40;;;1.00;;
47167;SDS011;32931;47.778;17.806;2022-09-29T02:16:47;3.47;;;1.23;;
47167;SDS011;32931;47.778;17.806;2022-09-29T02:21:48;1.50;;;1.08;;
47167;SDS011;32931;47.778;17.806;2022-09-29T02:24:19;3.63;;;1.42;;
47167;SDS011;32931;47.778;17.806;2022-09-29T02:26:46;1.95;;;1.10;;
47167;SDS011;32931;47.778;17.806;2022-09-29T02:29:13;2.90;;;1.30;;
47167;SDS011;32931;47.778;17.806;2022-09-29T02:31:41;1.60;;;1.08;;
47167;SDS011;32931;47.778;17.806;2022-09-29T02:34:09;2.28;;;1.10;;
47167;SDS011;32931;47.778;17.806;2022-09-29T02:36:45;4.05;;;1.10;;
47167;SDS011;32931;47.778;17.806;2022-09-29T02:50:20;3.60;;;0.80;;
47167;SDS011;32931;47.778;17.806;2022-09-29T02:53:29;3.17;;;0.80;;
47167;SDS011;32931;47.778;17.806;2022-09-29T02:56:23;1.40;;;0.70;;
47167;SDS011;32931;47.778;17.806;2022-09-29T02:59:15;2.53;;;0.73;;
47167;SDS011;32931;47.778;17.806;2022-09-29T03:01:50;4.30;;;1.42;;
47167;SDS011;32931;47.778;17.806;2022-09-29T03:04:19;1.10;;;0.75;;
47167;SDS011;32931;47.778;17.806;2022-09-29T03:06:48;2.05;;;0.80;;
47167;SDS011;32931;47.778;17.806;2022-09-29T03:09:14;1.85;;;0.60;;
47167;SDS011;32931;47.778;17.806;2022-09-29T03:11:40;3.20;;;0.70;;
47167;SDS011;32931;47.778;17.806;2022-09-29T03:14:07;2.92;;;1.23;;
47167;SDS011;32931;47.778;17.806;2022-09-29T03:16:34;11.27;;;0.93;;
47167;SDS011;32931;47.778;17.806;2022-09-29T03:19:01;0.85;;;0.57;;
47167;SDS011;32931;47.778;17.806;2022-09-29T03:21:30;3.13;;;0.70;;
47167;SDS011;32931;47.778;17.806;2022-09-29T03:23:57;1.92;;;0.50;;
47167;SDS011;32931;47.778;17.806;2022-09-29T03:26:23;0.93;;;0.68;;
47167;SDS011;32931;47.778;17.806;2022-09-29T03:28:50;2.58;;;0.85;;
47167;SDS011;32931;47.778;17.806;2022-09-29T03:31:17;2.55;;;0.47;;
47167;SDS011;32931;47.778;17.806;2022-09-29T03:33:43;2.00;;;0.68;;
47167;SDS011;32931;47.778;17.806;2022-09-29T03:36:09;1.13;;;0.50;;
47167;SDS011;32931;47.778;17.806;2022-09-29T03:38:39;1.00;;;0.43;;
47167;SDS011;32931;47.778;17.806;2022-09-29T03:41:05;1.60;;;0.40;;
47167;SDS011;32931;47.778;17.806;2022-09-29T03:43:32;1.70;;;0.47;;
47167;SDS011;32931;47.778;17.806;2022-09-29T03:45:58;2.58;;;0.50;;
47167;SDS011;32931;47.778;17.806;2022-09-29T03:48:24;1.25;;;0.50;;
47167;SDS011;32931;47.778;17.806;2022-09-29T03:50:55;1.75;;;0.60;;
47167;SDS011;32931;47.778;17.806;2022-09-29T03:53:21;0.90;;;0.52;;
47167;SDS011;32931;47.778;17.806;2022-09-29T03:55:48;2.08;;;0.60;;
47167;SDS011;32931;47.778;17.806;2022-09-29T03:58:15;2.08;;;0.65;;
47167;SDS011;32931;47.778;17.806;2022-09-29T04:00:42;1.58;;;0.68;;
47167;SDS011;32931;47.778;17.806;2022-09-29T04:03:09;4.22;;;0.50;;
47167;SDS011;32931;47.778;17.806;2022-09-29T04:05:36;2.20;;;0.70;;
47167;SDS011;32931;47.778;17.806;2022-09-29T04:08:04;1.63;;;0.60;;
47167;SDS011;32931;47.778;17.806;2022-09-29T04:10:33;0.57;;;0.50;;
47167;SDS011;32931;47.778;17.806;2022-09-29T04:12:59;2.40;;;0.77;;
47167;SDS011;32931;47.778;17.806;2022-09-29T04:15:26;1.10;;;0.60;;
47167;SDS011;32931;47.778;17.806;2022-09-29T04:17:52;1.40;;;0.80;;
47167;SDS011;32931;47.778;17.806;2022-09-29T04:20:19;2.10;;;0.90;;
47167;SDS011;32931;47.778;17.806;2022-09-29T04:22:45;1.38;;;0.70;;
47167;SDS011;32931;47.778;17.806;2022-09-29T04:25:11;1.42;;;0.63;;
47167;SDS011;32931;47.778;17.806;2022-09-29T04:27:37;1.42;;;0.80;;
47167;SDS011;32931;47.778;17.806;2022-09-29T04:30:04;1.63;;;0.80;;
47167;SDS011;32931;47.778;17.806;2022-09-29T04:32:31;1.52;;;0.80;;
47167;SDS011;32931;47.778;17.806;2022-09-29T04:34:58;2.30;;;0.82;;
47167;SDS011;32931;47.778;17.806;2022-09-29T04:37:24;2.92;;;0.90;;
47167;SDS011;32931;47.778;17.806;2022-09-29T04:39:50;1.50;;;0.77;;
47167;SDS011;32931;47.778;17.806;2022-09-29T04:42:18;1.10;;;0.70;;
47167;SDS011;32931;47.778;17.806;2022-09-29T04:44:45;2.08;;;0.80;;
47167;SDS011;32931;47.778;17.806;2022-09-29T04:47:12;1.90;;;0.77;;
47167;SDS011;32931;47.778;17.806;2022-09-29T04:49:38;1.40;;;0.93;;
47167;SDS011;32931;47.778;17.806;2022-09-29T04:52:04;3.72;;;1.00;;
47167;SDS011;32931;47.778;17.806;2022-09-29T04:54:31;3.13;;;0.95;;
47167;SDS011;32931;47.778;17.806;2022-09-29T04:56:59;1.58;;;0.88;;
47167;SDS011;32931;47.778;17.806;2022-09-29T04:59:26;1.25;;;0.80;;
47167;SDS011;32931;47.778;17.806;2022-09-29T05:01:53;2.60;;;0.80;;
47167;SDS011;32931;47.778;17.806;2022-09-29T05:04:19;2.20;;;0.70;;
47167;SDS011;32931;47.778;17.806;2022-09-29T05:06:45;6.88;;;0.70;;
47167;SDS011;32931;47.778;17.806;2022-09-29T05:09:11;1.55;;;0.70;;
47167;SDS011;32931;47.778;17.806;2022-09-29T05:11:38;5.15;;;0.80;;
47167;SDS011;32931;47.778;17.806;2022-09-29T05:14:04;2.63;;;0.65;;
47167;SDS011;32931;47.778;17.806;2022-09-29T05:16:31;1.65;;;0.85;;
47167;SDS011;32931;47.778;17.806;2022-09-29T05:18:57;2.75;;;0.90;;
47167;SDS011;32931;47.778;17.806;2022-09-29T05:21:24;4.82;;;0.70;;
47167;SDS011;32931;47.778;17.806;2022-09-29T05:23:50;2.08;;;0.80;;
47167;SDS011;32931;47.778;17.806;2022-09-29T05:26:16;2.35;;;0.70;;
47167;SDS011;32931;47.778;17.806;2022-09-29T05:28:43;1.60;;;0.70;;
47167;SDS011;32931;47.778;17.806;2022-09-29T05:31:11;1.35;;;0.80;;
47167;SDS011;32931;47.778;17.806;2022-09-29T05:33:38;3.75;;;0.98;;
47167;SDS011;32931;47.778;17.806;2022-09-29T05:36:05;3.10;;;0.70;;
47167;SDS011;32931;47.778;17.806;2022-09-29T05:38:33;4.70;;;1.00;;
47167;SDS011;32931;47.778;17.806;2022-09-29T05:41:03;1.60;;;0.80;;
47167;SDS011;32931;47.778;17.806;2022-09-29T05:43:34;3.53;;;0.73;;
47167;SDS011;32931;47.778;17.806;2022-09-29T05:46:01;1.67;;;0.70;;
47167;SDS011;32931;47.778;17.806;2022-09-29T05:48:29;3.15;;;0.90;;
47167;SDS011;32931;47.778;17.806;2022-09-29T05:50:56;2.78;;;1.00;;
47167;SDS011;32931;47.778;17.806;2022-09-29T05:53:23;2.92;;;0.80;;
47167;SDS011;32931;47.778;17.806;2022-09-29T05:55:49;1.65;;;1.10;;
47167;SDS011;32931;47.778;17.806;2022-09-29T05:58:15;3.55;;;0.85;;
47167;SDS011;32931;47.778;17.806;2022-09-29T06:00:42;1.88;;;0.93;;
47167;SDS011;32931;47.778;17.806;2022-09-29T06:03:08;3.95;;;0.93;;
47167;SDS011;32931;47.778;17.806;2022-09-29T06:05:37;1.35;;;1.00;;
47167;SDS011;32931;47.778;17.806;2022-09-29T06:08:04;2.97;;;0.98;;
47167;SDS011;32931;47.778;17.806;2022-09-29T06:10:30;3.33;;;1.00;;
47167;SDS011;32931;47.778;17.806;2022-09-29T06:12:57;1.20;;;0.77;;
47167;SDS011;32931;47.778;17.806;2022-09-29T06:15:23;1.70;;;0.82;;
47167;SDS011;32931;47.778;17.806;2022-09-29T06:17:56;2.47;;;1.00;;
47167;SDS011;32931;47.778;17.806;2022-09-29T06:20:23;3.45;;;0.95;;
47167;SDS011;32931;47.778;17.806;2022-09-29T06:22:53;4.72;;;0.90;;
47167;SDS011;32931;47.778;17.806;2022-09-29T06:25:20;2.90;;;1.23;;
47167;SDS011;32931;47.778;17.806;2022-09-29T06:27:47;1.48;;;1.00;;
47167;SDS011;32931;47.778;17.806;2022-09-29T06:30:14;3.63;;;1.10;;
47167;SDS011;32931;47.778;17.806;2022-09-29T06:32:40;2.85;;;1.00;;
47167;SDS011;32931;47.778;17.806;2022-09-29T06:35:07;3.95;;;0.98;;
47167;SDS011;32931;47.778;17.806;2022-09-29T06:37:54;2.35;;;1.00;;
47167;SDS011;32931;47.778;17.806;2022-09-29T06:40:21;2.25;;;1.20;;
47167;SDS011;32931;47.778;17.806;2022-09-29T06:42:47;2.38;;;1.10;;
47167;SDS011;32931;47.778;17.806;2022-09-29T06:45:14;1.92;;;0.88;;
47167;SDS011;32931;47.778;17.806;2022-09-29T06:47:41;2.83;;;1.30;;
47167;SDS011;32931;47.778;17.806;2022-09-29T06:50:07;1.75;;;0.90;;
47167;SDS011;32931;47.778;17.806;2022-09-29T06:52:34;3.30;;;1.02;;
47167;SDS011;32931;47.778;17.806;2022-09-29T06:55:00;3.00;;;1.00;;
47167;SDS011;32931;47.778;17.806;2022-09-29T06:57:26;5.82;;;1.00;;
47167;SDS011;32931;47.778;17.806;2022-09-29T06:59:53;3.58;;;0.90;;
47167;SDS011;32931;47.778;17.806;2022-09-29T07:02:19;3.50;;;0.93;;
47167;SDS011;32931;47.778;17.806;2022-09-29T07:04:45;1.63;;;0.88;;
47167;SDS011;32931;47.778;17.806;2022-09-29T07:07:13;3.67;;;0.90;;
47167;SDS011;32931;47.778;17.806;2022-09-29T07:09:40;2.35;;;0.90;;
47167;SDS011;32931;47.778;17.806;2022-09-29T07:12:07;1.48;;;0.90;;
47167;SDS011;32931;47.778;17.806;2022-09-29T07:14:33;1.30;;;0.90;;
47167;SDS011;32931;47.778;17.806;2022-09-29T07:16:59;2.97;;;1.08;;
47167;SDS011;32931;47.778;17.806;2022-09-29T07:19:25;1.38;;;0.80;;
47167;SDS011;32931;47.778;17.806;2022-09-29T07:21:53;1.05;;;0.63;;
47167;SDS011;32931;47.778;17.806;2022-09-29T07:24:19;2.35;;;1.00;;
47167;SDS011;32931;47.778;17.806;2022-09-29T07:26:45;1.92;;;1.13;;
47167;SDS011;32931;47.778;17.806;2022-09-29T07:29:11;3.08;;;0.82;;
47167;SDS011;32931;47.778;17.806;2022-09-29T07:31:38;6.72;;;1.10;;
47167;SDS011;32931;47.778;17.806;2022-09-29T07:34:05;4.43;;;0.70;;
47167;SDS011;32931;47.778;17.806;2022-09-29T07:36:31;4.40;;;1.10;;
47167;SDS011;32931;47.778;17.806;2022-09-29T07:38:58;4.18;;;1.00;;
47167;SDS011;32931;47.778;17.806;2022-09-29T07:41:24;2.38;;;1.30;;
47167;SDS011;32931;47.778;17.806;2022-09-29T07:43:50;3.67;;;1.10;;
47167;SDS011;32931;47.778;17.806;2022-09-29T07:46:17;1.77;;;1.10;;
47167;SDS011;32931;47.778;17.806;2022-09-29T07:48:45;2.47;;;0.93;;
47167;SDS011;32931;47.778;17.806;2022-09-29T07:53:39;5.78;;;0.90;;
47167;SDS011;32931;47.778;17.806;2022-09-29T07:56:09;5.78;;;1.33;;
47167;SDS011;32931;47.778;17.806;2022-09-29T07:58:40;1.45;;;0.90;;
47167;SDS011;32931;47.778;17.806;2022-09-29T08:01:07;4.28;;;1.30;;
47167;SDS011;32931;47.778;17.806;2022-09-29T08:03:37;2.08;;;1.00;;
47167;SDS011;32931;47.778;17.806;2022-09-29T08:06:05;3.45;;;1.00;;
47167;SDS011;32931;47.778;17.806;2022-09-29T08:08:34;1.98;;;0.93;;
47167;SDS011;32931;47.778;17.806;2022-09-29T08:11:06;1.15;;;0.80;;
47167;SDS011;32931;47.778;17.806;2022-09-29T08:13:34;1.73;;;0.97;;
47167;SDS011;32931;47.778;17.806;2022-09-29T08:16:01;2.35;;;0.80;;
47167;SDS011;32931;47.778;17.806;2022-09-29T08:18:29;1.17;;;0.90;;
47167;SDS011;32931;47.778;17.806;2022-09-29T08:20:56;7.47;;;1.02;;
47167;SDS011;32931;47.778;17.806;2022-09-29T08:23:22;2.17;;;1.20;;
47167;SDS011;32931;47.778;17.806;2022-09-29T08:25:49;3.47;;;1.30;;
47167;SDS011;32931;47.778;17.806;2022-09-29T08:28:23;3.15;;;1.08;;
47167;SDS011;32931;47.778;17.806;2022-09-29T08:30:49;2.13;;;1.10;;
47167;SDS011;32931;47.778;17.806;2022-09-29T08:33:15;2.50;;;0.95;;
47167;SDS011;32931;47.778;17.806;2022-09-29T08:35:41;7.63;;;1.10;;
47167;SDS011;32931;47.778;17.806;2022-09-29T08:38:08;5.15;;;0.90;;
47167;SDS011;32931;47.778;17.806;2022-09-29T08:40:34;3.72;;;1.00;;
47167;SDS011;32931;47.778;17.806;2022-09-29T08:43:08;4.13;;;1.10;;
47167;SDS011;32931;47.778;17.806;2022-09-29T08:45:53;3.70;;;0.88;;
47167;SDS011;32931;47.778;17.806;2022-09-29T08:48:27;1.50;;;0.70;;
47167;SDS011;32931;47.778;17.806;2022-09-29T08:51:04;1.80;;;0.90;;
47167;SDS011;32931;47.778;17.806;2022-09-29T08:53:33;4.25;;;0.80;;
47167;SDS011;32931;47.778;17.806;2022-09-29T08:56:06;2.00;;;0.90;;
47167;SDS011;32931;47.778;17.806;2022-09-29T08:58:38;2.53;;;0.80;;
47167;SDS011;32931;47.778;17.806;2022-09-29T09:06:20;2.58;;;1.08;;
47167;SDS011;32931;47.778;17.806;2022-09-29T09:20:10;2.17;;;0.80;;
47167;SDS011;32931;47.778;17.806;2022-09-29T09:25:35;5.35;;;0.90;;
47167;SDS011;32931;47.778;17.806;2022-09-29T09:30:45;1.60;;;0.85;;
47167;SDS011;32931;47.778;17.806;2022-09-29T09:33:19;4.53;;;1.17;;
47167;SDS011;32931;47.778;17.806;2022-09-29T09:36:00;1.75;;;0.70;;
47167;SDS011;32931;47.778;17.806;2022-09-29T09:38:40;3.53;;;1.00;;
47167;SDS011;32931;47.778;17.806;2022-09-29T09:41:12;2.65;;;0.90;;
47167;SDS011;32931;47.778;17.806;2022-09-29T09:43:43;4.00;;;0.88;;
47167;SDS011;32931;47.778;17.806;2022-09-29T09:46:21;2.30;;;1.05;;
47167;SDS011;32931;47.778;17.806;2022-09-29T09:49:00;3.63;;;1.13;;
47167;SDS011;32931;47.778;17.806;2022-09-29T09:54:27;7.53;;;1.00;;
47167;SDS011;32931;47.778;17.806;2022-09-29T10:02:24;3.92;;;0.90;;
47167;SDS011;32931;47.778;17.806;2022-09-29T10:04:51;3.47;;;1.30;;
47167;SDS011;32931;47.778;17.806;2022-09-29T10:07:19;5.53;;;1.10;;
47167;SDS011;32931;47.778;17.806;2022-09-29T10:09:48;2.78;;;1.00;;
47167;SDS011;32931;47.778;17.806;2022-09-29T10:12:15;5.25;;;0.85;;
47167;SDS011;32931;47.778;17.806;2022-09-29T10:14:46;2.63;;;1.10;;
47167;SDS011;32931;47.778;17.806;2022-09-29T10:17:25;2.10;;;1.10;;
47167;SDS011;32931;47.778;17.806;2022-09-29T10:19:58;1.50;;;1.05;;
47167;SDS011;32931;47.778;17.806;2022-09-29T10:22:27;2.03;;;1.13;;
47167;SDS011;32931;47.778;17.806;2022-09-29T10:27:39;2.92;;;1.20;;
47167;SDS011;32931;47.778;17.806;2022-09-29T10:30:23;1.98;;;1.13;;
47167;SDS011;32931;47.778;17.806;2022-09-29T10:32:58;7.68;;;1.10;;
47167;SDS011;32931;47.778;17.806;2022-09-29T10:35:32;2.75;;;1.13;;
47167;SDS011;32931;47.778;17.806;2022-09-29T10:37:59;3.33;;;1.25;;
47167;SDS011;32931;47.778;17.806;2022-09-29T10:40:56;2.30;;;1.40;;
47167;SDS011;32931;47.778;17.806;2022-09-29T10:43:25;1.55;;;1.00;;
47167;SDS011;32931;47.778;17.806;2022-09-29T10:46:08;2.03;;;1.15;;
47167;SDS011;32931;47.778;17.806;2022-09-29T10:51:55;1.85;;;0.88;;
47167;SDS011;32931;47.778;17.806;2022-09-29T10:54:26;2.42;;;1.00;;
47167;SDS011;32931;47.778;17.806;2022-09-29T10:56:54;2.08;;;1.17;;
47167;SDS011;32931;47.778;17.806;2022-09-29T10:59:22;4.00;;;1.20;;
47167;SDS011;32931;47.778;17.806;2022-09-29T11:01:57;1.45;;;1.02;;
47167;SDS011;32931;47.778;17.806;2022-09-29T11:04:30;4.72;;;1.17;;
47167;SDS011;32931;47.778;17.806;2022-09-29T11:07:06;4.10;;;1.10;;
47167;SDS011;32931;47.778;17.806;2022-09-29T11:09:53;2.53;;;1.00;;
47167;SDS011;32931;47.778;17.806;2022-09-29T11:12:24;1.98;;;1.10;;
47167;SDS011;32931;47.778;17.806;2022-09-29T11:14:54;3.25;;;1.20;;
47167;SDS011;32931;47.778;17.806;2022-09-29T11:17:24;2.85;;;1.17;;
47167;SDS011;32931;47.778;17.806;2022-09-29T11:20:03;4.93;;;1.13;;
47167;SDS011;32931;47.778;17.806;2022-09-29T11:22:40;1.55;;;0.93;;
47167;SDS011;32931;47.778;17.806;2022-09-29T11:25:26;2.67;;;0.95;;
47167;SDS011;32931;47.778;17.806;2022-09-29T11:30:31;1.00;;;0.90;;
47167;SDS011;32931;47.778;17.806;2022-09-29T11:33:18;2.42;;;0.90;;
47167;SDS011;32931;47.778;17.806;2022-09-29T11:39:00;2.63;;;0.98;;
47167;SDS011;32931;47.778;17.806;2022-09-29T11:44:14;3.63;;;0.80;;
47167;SDS011;32931;47.778;17.806;2022-09-29T11:47:22;4.82;;;0.90;;
47167;SDS011;32931;47.778;17.806;2022-09-29T11:50:12;1.88;;;1.20;;
47167;SDS011;32931;47.778;17.806;2022-09-29T12:01:06;1.98;;;0.90;;
47167;SDS011;32931;47.778;17.806;2022-09-29T12:06:52;3.22;;;1.10;;
47167;SDS011;32931;47.778;17.806;2022-09-29T12:17:32;3.23;;;1.17;;
47167;SDS011;32931;47.778;17.806;2022-09-29T12:20:17;2.80;;;1.02;;
47167;SDS011;32931;47.778;17.806;2022-09-29T12:22:48;3.08;;;1.08;;
47167;SDS011;32931;47.778;17.806;2022-09-29T12:25:17;4.63;;;1.25;;
47167;SDS011;32931;47.778;17.806;2022-09-29T12:27:49;2.40;;;1.00;;
47167;SDS011;32931;47.778;17.806;2022-09-29T12:30:24;3.85;;;0.82;;
47167;SDS011;32931;47.778;17.806;2022-09-29T12:33:04;4.85;;;1.35;;
47167;SDS011;32931;47.778;17.806;2022-09-29T12:35:56;2.92;;;1.08;;
47167;SDS011;32931;47.778;17.806;2022-09-29T12:39:00;4.50;;;1.10;;
47167;SDS011;32931;47.778;17.806;2022-09-29T12:41:36;5.05;;;1.10;;
47167;SDS011;32931;47.778;17.806;2022-09-29T12:44:13;2.90;;;0.95;;
47167;SDS011;32931;47.778;17.806;2022-09-29T12:46:50;3.50;;;0.90;;
47167;SDS011;32931;47.778;17.806;2022-09-29T12:51:58;5.45;;;1.23;;
47167;SDS011;32931;47.778;17.806;2022-09-29T12:54:38;2.97;;;1.17;;
47167;SDS011;32931;47.778;17.806;2022-09-29T12:57:43;1.30;;;0.88;;
47167;SDS011;32931;47.778;17.806;2022-09-29T13:00:14;3.92;;;1.10;;
47167;SDS011;32931;47.778;17.806;2022-09-29T13:23:03;5.40;;;1.17;;
47167;SDS011;32931;47.778;17.806;2022-09-29T13:28:35;3.85;;;1.10;;
47167;SDS011;32931;47.778;17.806;2022-09-29T13:31:04;3.40;;;1.05;;
47167;SDS011;32931;47.778;17.806;2022-09-29T13:33:35;2.28;;;1.23;;
47167;SDS011;32931;47.778;17.806;2022-09-29T13:36:02;6.72;;;1.30;;
47167;SDS011;32931;47.778;17.806;2022-09-29T13:38:29;5.07;;;1.60;;
47167;SDS011;32931;47.778;17.806;2022-09-29T13:41:09;2.92;;;1.80;;
47167;SDS011;32931;47.778;17.806;2022-09-29T13:51:51;3.08;;;1.25;;
47167;SDS011;32931;47.778;17.806;2022-09-29T13:59:29;7.75;;;1.50;;
47167;SDS011;32931;47.778;17.806;2022-09-29T14:01:55;4.63;;;1.65;;
47167;SDS011;32931;47.778;17.806;2022-09-29T14:04:32;2.42;;;1.58;;
47167;SDS011;32931;47.778;17.806;2022-09-29T14:07:02;6.18;;;1.30;;
47167;SDS011;32931;47.778;17.806;2022-09-29T14:09:32;3.33;;;1.10;;
47167;SDS011;32931;47.778;17.806;2022-09-29T14:12:03;3.22;;;2.10;;
47167;SDS011;32931;47.778;17.806;2022-09-29T14:14:35;5.17;;;3.40;;
47167;SDS011;32931;47.778;17.806;2022-09-29T14:22:59;4.03;;;1.90;;
47167;SDS011;32931;47.778;17.806;2022-09-29T14:27:43;5.00;;;1.80;;
47167;SDS011;32931;47.778;17.806;2022-09-29T14:30:20;4.05;;;1.05;;
47167;SDS011;32931;47.778;17.806;2022-09-29T14:35:36;4.90;;;1.38;;
47167;SDS011;32931;47.778;17.806;2022-09-29T14:38:23;2.72;;;1.35;;
47167;SDS011;32931;47.778;17.806;2022-09-29T14:41:24;4.82;;;1.23;;
47167;SDS011;32931;47.778;17.806;2022-09-29T14:55:56;2.75;;;1.25;;
47167;SDS011;32931;47.778;17.806;2022-09-29T15:01:29;6.15;;;2.00;;
47167;SDS011;32931;47.778;17.806;2022-09-29T15:03:57;2.20;;;1.33;;
47167;SDS011;32931;47.778;17.806;2022-09-29T15:06:45;3.88;;;2.00;;
47167;SDS011;32931;47.778;17.806;2022-09-29T15:09:17;3.85;;;1.50;;
47167;SDS011;32931;47.778;17.806;2022-09-29T15:11:49;3.93;;;1.30;;
47167;SDS011;32931;47.778;17.806;2022-09-29T15:19:51;3.30;;;1.20;;
47167;SDS011;32931;47.778;17.806;2022-09-29T15:27:55;5.78;;;1.33;;
47167;SDS011;32931;47.778;17.806;2022-09-29T15:30:28;7.07;;;1.50;;
47167;SDS011;32931;47.778;17.806;2022-09-29T15:35:50;6.05;;;1.27;;
47167;SDS011;32931;47.778;17.806;2022-09-29T15:40:53;3.35;;;1.10;;
47167;SDS011;32931;47.778;17.806;2022-09-29T15:43:21;1.85;;;1.00;;
47167;SDS011;32931;47.778;17.806;2022-09-29T15:45:57;3.03;;;1.23;;
47167;SDS011;32931;47.778;17.806;2022-09-29T15:48:28;3.70;;;1.42;;
47167;SDS011;32931;47.778;17.806;2022-09-29T15:50:55;4.13;;;1.35;;
47167;SDS011;32931;47.778;17.806;2022-09-29T15:53:23;2.88;;;1.90;;
47167;SDS011;32931;47.778;17.806;2022-09-29T15:55:52;3.58;;;1.38;;
47167;SDS011;32931;47.778;17.806;2022-09-29T16:01:02;2.53;;;1.70;;
47167;SDS011;32931;47.778;17.806;2022-09-29T16:03:36;3.58;;;1.40;;
47167;SDS011;32931;47.778;17.806;2022-09-29T16:06:16;5.53;;;1.73;;
47167;SDS011;32931;47.778;17.806;2022-09-29T16:08:53;1.83;;;1.40;;
47167;SDS011;32931;47.778;17.806;2022-09-29T16:11:23;8.57;;;2.15;;
47167;SDS011;32931;47.778;17.806;2022-09-29T16:13:53;6.05;;;2.00;;
47167;SDS011;32931;47.778;17.806;2022-09-29T16:16:25;10.00;;;1.90;;
47167;SDS011;32931;47.778;17.806;2022-09-29T16:18:57;10.80;;;1.70;;
47167;SDS011;32931;47.778;17.806;2022-09-29T16:21:31;12.77;;;2.20;;
47167;SDS011;32931;47.778;17.806;2022-09-29T16:24:13;5.20;;;2.22;;
47167;SDS011;32931;47.778;17.806;2022-09-29T16:26:48;7.70;;;1.88;;
47167;SDS011;32931;47.778;17.806;2022-09-29T16:31:56;3.92;;;1.75;;
47167;SDS011;32931;47.778;17.806;2022-09-29T16:34:28;8.07;;;2.28;;
47167;SDS011;32931;47.778;17.806;2022-09-29T16:37:04;4.65;;;2.10;;
47167;SDS011;32931;47.778;17.806;2022-09-29T16:39:40;5.05;;;1.98;;
47167;SDS011;32931;47.778;17.806;2022-09-29T16:42:21;8.57;;;2.30;;
47167;SDS011;32931;47.778;17.806;2022-09-29T16:44:50;5.32;;;2.75;;
47167;SDS011;32931;47.778;17.806;2022-09-29T16:47:21;6.65;;;2.72;;
47167;SDS011;32931;47.778;17.806;2022-09-29T16:49:55;7.22;;;2.20;;
47167;SDS011;32931;47.778;17.806;2022-09-29T16:52:27;4.55;;;2.45;;
47167;SDS011;32931;47.778;17.806;2022-09-29T16:55:15;4.75;;;2.28;;
47167;SDS011;32931;47.778;17.806;2022-09-29T16:57:52;2.97;;;1.73;;
47167;SDS011;32931;47.778;17.806;2022-09-29T17:00:26;6.82;;;2.10;;
47167;SDS011;32931;47.778;17.806;2022-09-29T17:02:53;6.22;;;1.90;;
47167;SDS011;32931;47.778;17.806;2022-09-29T17:05:23;6.70;;;2.35;;
47167;SDS011;32931;47.778;17.806;2022-09-29T17:07:50;5.20;;;1.90;;
47167;SDS011;32931;47.778;17.806;2022-09-29T17:10:24;4.03;;;2.63;;
47167;SDS011;32931;47.778;17.806;2022-09-29T17:12:51;6.68;;;2.40;;
47167;SDS011;32931;47.778;17.806;2022-09-29T17:15:19;5.85;;;2.58;;
47167;SDS011;32931;47.778;17.806;2022-09-29T17:17:47;10.27;;;3.20;;
47167;SDS011;32931;47.778;17.806;2022-09-29T17:20:16;12.57;;;5.90;;
47167;SDS011;32931;47.778;17.806;2022-09-29T17:22:45;7.57;;;4.97;;
47167;SDS011;32931;47.778;17.806;2022-09-29T17:25:11;8.55;;;4.00;;
47167;SDS011;32931;47.778;17.806;2022-09-29T17:27:38;7.70;;;2.40;;
47167;SDS011;32931;47.778;17.806;2022-09-29T17:30:25;3.05;;;1.80;;
47167;SDS011;32931;47.778;17.806;2022-09-29T17:32:53;4.22;;;2.33;;
47167;SDS011;32931;47.778;17.806;2022-09-29T17:35:24;3.90;;;2.08;;
47167;SDS011;32931;47.778;17.806;2022-09-29T17:37:52;5.63;;;2.33;;
47167;SDS011;32931;47.778;17.806;2022-09-29T17:40:24;7.82;;;4.10;;
47167;SDS011;32931;47.778;17.806;2022-09-29T17:42:59;8.75;;;3.58;;
47167;SDS011;32931;47.778;17.806;2022-09-29T17:45:27;12.00;;;4.45;;
47167;SDS011;32931;47.778;17.806;2022-09-29T17:48:02;17.75;;;10.13;;
47167;SDS011;32931;47.778;17.806;2022-09-29T17:50:33;20.88;;;7.47;;
47167;SDS011;32931;47.778;17.806;2022-09-29T17:53:02;14.18;;;7.00;;
47167;SDS011;32931;47.778;17.806;2022-09-29T17:55:29;16.42;;;7.65;;
47167;SDS011;32931;47.778;17.806;2022-09-29T17:57:56;11.48;;;5.80;;
47167;SDS011;32931;47.778;17.806;2022-09-29T18:00:24;8.50;;;5.75;;
47167;SDS011;32931;47.778;17.806;2022-09-29T18:02:52;8.93;;;4.40;;
47167;SDS011;32931;47.778;17.806;2022-09-29T18:05:24;5.40;;;2.88;;
47167;SDS011;32931;47.778;17.806;2022-09-29T18:07:53;7.00;;;2.70;;
47167;SDS011;32931;47.778;17.806;2022-09-29T18:12:55;6.35;;;2.70;;